Terminal Aerodrome Forecast
Issued by NWS

Home | Current Version | Previous Version | Text Only | Print | Product List | Glossary On
Versions: 1 2 3 4 5 6 7 8 9 10 11
976
FTUS43 KGRR 270305 AAA
TAFJXN
TAF AMD
KJXN 270305Z 2703/2724 VRB05KT P6SM VCSH OVC035
     FM271200 19006KT 5SM BR VCTS OVC050CB
     FM271800 24012G18KT P6SM OVC035
     FM272100 27018G24KT P6SM BKN035=

USA.gov is the U.S. government's official web portal to all federal, state and local government web resources and services.